Time;durP1;ratioP1;P1;durP2;ratioP2;P2;SDS_P1;SDS_P2;PMS_P1;PMS_P2;Temp;Humidity;BMP_temperature;BMP_pressure;BME280_temperature;BME280_humidity;BME280_pressure;Samples;Min_cycle;Max_cycle;Signal;HPM_P1;HPM_P2
2022/02/19 00:00:00;;;;;;;;;;;7.00;99.90;;;6.04;68.17;95113.56;10406163;28;1853;-71
2022/02/19 00:05:03;;;;;;;;;;;7.50;99.90;;;6.00;68.87;95112.50;10413097;28;1809;-70
2022/02/19 00:10:06;;;;;;;;;;;7.00;99.90;;;6.03;69.52;95134.09;10408680;28;1842;-70
2022/02/19 00:15:09;;;;;;;;;;;7.00;99.90;;;5.98;69.71;95150.13;10411066;28;1922;-70
2022/02/19 00:20:14;;;;;;;;;;;7.00;99.90;;;5.96;69.75;95146.88;10408874;28;1797;-71
2022/02/19 00:25:19;;;;;;;;;;;7.00;99.90;;;5.88;66.55;95145.50;10407116;28;1821;-72
2022/02/19 00:30:22;;;;;;;;;;;6.90;99.90;;;5.84;62.26;95171.06;10408029;28;1889;-71
2022/02/19 00:35:25;;;;;;;;;;;6.80;99.90;;;5.83;60.54;95182.00;10407454;28;1969;-70
2022/02/19 00:40:29;;;;;;;;;;;6.90;99.90;;;5.81;59.47;95189.47;10411181;28;1744;-70
2022/02/19 00:45:32;;;;;;;;;;;6.70;99.90;;;5.81;60.37;95184.13;10407069;28;1873;-70
2022/02/19 00:50:35;;;;;;;;;;;6.80;99.90;;;5.72;61.93;95164.31;10402423;28;1872;-71
2022/02/19 00:55:39;;;;;;;;;;;6.70;99.90;;;5.63;63.07;95182.69;10405703;28;2004;-71
2022/02/19 01:00:42;;;;;;;;;;;6.70;99.90;;;5.64;62.42;95195.75;10397521;28;1850;-71
2022/02/19 01:05:45;;;;;;;;;;;6.60;99.90;;;5.60;64.73;95183.19;10401147;28;1841;-71
2022/02/19 01:10:48;;;;;;;;;;;6.60;99.90;;;5.54;64.63;95210.88;10415361;28;1960;-70
2022/02/19 01:15:52;;;;;;;;;;;6.70;99.90;;;5.59;64.26;95214.38;10423138;28;1886;-70
2022/02/19 01:20:56;;;;;;;;;;;6.60;99.90;;;5.69;61.27;95218.97;10415564;28;1795;-70
2022/02/19 01:25:58;;;;;;;;;;;6.70;99.90;;;5.77;57.64;95193.69;10408104;28;1874;-70
2022/02/19 01:31:01;;;;;;;;;;;6.70;99.90;;;5.72;56.99;95207.78;10408256;28;1856;-70
2022/02/19 01:36:05;;;;;;;;;;;6.70;99.90;;;5.80;55.98;95223.34;10411253;28;1914;-71
2022/02/19 01:41:08;;;;;;;;;;;6.80;99.90;;;5.76;55.88;95214.22;10423520;28;1916;-71
2022/02/19 01:46:11;;;;;;;;;;;6.80;99.90;;;5.79;54.66;95216.41;10418683;28;1829;-69
2022/02/19 01:51:14;;;;;;;;;;;6.80;99.90;;;5.90;55.05;95204.72;10415377;28;1857;-69
2022/02/19 01:56:18;;;;;;;;;;;6.90;99.90;;;5.77;55.14;95207.81;10424583;28;1914;-70
2022/02/19 02:01:21;;;;;;;;;;;6.90;99.90;;;5.76;56.35;95221.44;10401793;28;2267;-71
2022/02/19 02:06:24;;;;;;;;;;;6.80;99.90;;;5.73;57.93;95221.94;10420352;28;1988;-71
2022/02/19 02:11:28;;;;;;;;;;;6.80;99.90;;;5.73;58.66;95240.63;10419470;28;1929;-71
2022/02/19 02:16:31;;;;;;;;;;;6.70;99.90;;;5.67;59.52;95247.78;10418573;28;1789;-70
2022/02/19 02:21:34;;;;;;;;;;;6.70;99.90;;;5.61;60.57;95249.59;10414293;28;1752;-72
2022/02/19 02:26:38;;;;;;;;;;;6.70;99.90;;;5.62;61.24;95240.53;10413608;28;1995;-70
2022/02/19 02:31:41;;;;;;;;;;;6.70;99.90;;;5.63;62.00;95252.81;10402979;28;1952;-70
2022/02/19 02:36:44;;;;;;;;;;;6.70;99.90;;;5.58;62.64;95247.41;10422311;28;1896;-71
2022/02/19 02:41:47;;;;;;;;;;;6.60;99.90;;;5.62;63.05;95250.41;10409685;28;1939;-71
2022/02/19 02:46:51;;;;;;;;;;;6.60;99.90;;;5.64;63.87;95249.06;10412225;28;1983;-71
2022/02/19 02:51:54;;;;;;;;;;;6.70;99.90;;;5.67;64.45;95253.09;10411414;28;1985;-72
2022/02/19 02:56:57;;;;;;;;;;;6.70;99.90;;;5.62;64.73;95248.53;10418646;28;1817;-72
2022/02/19 03:02:00;;;;;;;;;;;6.70;99.90;;;5.66;65.22;95262.13;10415769;28;1885;-71
2022/02/19 03:07:04;;;;;;;;;;;6.70;99.90;;;5.71;65.33;95275.53;10418193;28;2128;-71
2022/02/19 03:12:07;;;;;;;;;;;6.70;99.90;;;5.69;66.27;95299.78;10419490;28;1909;-71
2022/02/19 03:17:10;;;;;;;;;;;6.70;99.90;;;5.61;71.01;95302.13;10408677;28;2008;-71
2022/02/19 03:22:14;;;;;;;;;;;6.70;99.90;;;4.88;86.66;95310.44;10409732;28;1854;-72
2022/02/19 03:27:17;;;;;;;;;;;6.30;99.90;;;4.65;89.17;95300.06;10403104;28;2055;-72
2022/02/19 03:32:20;;;;;;;;;;;5.90;99.90;;;4.52;89.72;95316.41;10410428;28;2352;-70
2022/02/19 03:37:23;;;;;;;;;;;5.60;99.90;;;4.41;81.40;95327.94;10412006;28;1783;-70
2022/02/19 03:42:27;;;;;;;;;;;5.50;99.90;;;4.30;76.44;95335.78;10414560;28;1873;-71
2022/02/19 03:47:30;;;;;;;;;;;5.40;99.90;;;4.16;78.04;95326.53;10415870;28;1873;-70
2022/02/19 03:52:34;;;;;;;;;;;5.30;99.90;;;3.75;84.00;95349.84;10410938;28;1988;-70
2022/02/19 03:57:40;;;;;;;;;;;;;;;3.61;87.81;95359.16;10414210;28;1925;-70
2022/02/19 04:02:43;;;;;;;;;;;4.80;99.90;;;3.48;91.26;95354.16;10412911;28;1769;-70
2022/02/19 04:07:47;;;;;;;;;;;4.60;99.90;;;3.38;93.25;95359.28;10410888;28;1821;-70
2022/02/19 04:12:51;;;;;;;;;;;4.50;99.90;;;3.39;94.44;95367.03;10415024;28;1992;-70
2022/02/19 04:17:55;;;;;;;;;;;4.60;99.90;;;3.39;94.75;95366.22;10421547;28;1593;-70
2022/02/19 04:22:59;;;;;;;;;;;4.40;99.90;;;3.38;96.00;95372.59;10414937;28;1838;-70
2022/02/19 04:28:03;;;;;;;;;;;4.50;99.90;;;3.28;97.15;95381.16;10406736;28;1772;-71
2022/02/19 04:33:06;;;;;;;;;;;4.40;99.90;;;3.23;97.34;95384.50;10415221;28;1914;-70
2022/02/19 04:38:09;;;;;;;;;;;4.30;99.90;;;3.23;97.17;95392.47;10410613;28;2003;-71
2022/02/19 04:43:14;;;;;;;;;;;2.90;99.90;;;3.27;97.19;95395.50;10409379;28;2167;-70
2022/02/19 04:48:20;;;;;;;;;;;4.50;99.90;;;3.40;95.67;95405.03;10412135;28;1801;-70
2022/02/19 04:53:24;;;;;;;;;;;4.50;99.90;;;3.47;93.70;95401.19;10410082;28;1910;-70
2022/02/19 04:58:28;;;;;;;;;;;4.70;99.90;;;3.49;93.36;95392.97;10404105;28;1750;-70
2022/02/19 05:03:32;;;;;;;;;;;4.70;99.90;;;3.55;92.64;95407.94;10408130;28;1762;-71
2022/02/19 05:08:35;;;;;;;;;;;4.80;99.90;;;3.70;91.29;95397.59;10397093;28;2151;-71
2022/02/19 05:13:38;;;;;;;;;;;4.90;99.90;;;3.76;89.99;95420.59;10408145;28;1906;-70
2022/02/19 05:18:42;;;;;;;;;;;5.00;99.90;;;3.75;89.59;95413.66;10404535;28;1893;-71
2022/02/19 05:23:45;;;;;;;;;;;5.10;99.90;;;3.76;89.16;95412.59;10413972;28;1869;-71
2022/02/19 05:28:48;;;;;;;;;;;5.00;99.90;;;3.71;88.89;95428.47;10402806;28;1856;-71
2022/02/19 05:33:51;;;;;;;;;;;5.00;99.90;;;3.75;89.14;95445.56;10407589;28;1913;-70
2022/02/19 05:38:56;;;;;;;;;;;5.00;99.90;;;3.87;87.96;95436.69;10408316;28;1845;-70
2022/02/19 05:44:04;;;;;;;;;;;5.10;99.90;;;3.95;87.07;95455.75;10407278;28;1870;-71
2022/02/19 05:49:07;;;;;;;;;;;5.10;99.90;;;4.07;87.18;95463.63;10407535;28;1853;-70
2022/02/19 05:54:10;;;;;;;;;;;5.20;99.90;;;4.04;86.83;95459.59;10404310;28;1979;-70
2022/02/19 05:59:13;;;;;;;;;;;5.20;99.90;;;4.10;86.15;95473.00;10403656;28;1825;-71
2022/02/19 06:04:16;;;;;;;;;;;5.30;99.90;;;4.06;85.00;95470.00;10412214;28;1822;-70
2022/02/19 06:09:19;;;;;;;;;;;5.30;99.90;;;4.06;85.09;95468.16;10406328;28;1786;-70
2022/02/19 06:14:22;;;;;;;;;;;5.30;99.90;;;4.03;85.64;95494.44;10415994;28;1973;-71
2022/02/19 06:19:24;;;;;;;;;;;5.20;99.90;;;4.09;85.79;95484.69;10415498;28;1817;-70
2022/02/19 06:24:27;;;;;;;;;;;5.30;99.90;;;4.11;85.84;95495.88;10413960;28;1806;-70
2022/02/19 06:29:30;;;;;;;;;;;5.30;99.90;;;4.15;85.57;95503.16;10411330;28;1825;-70
2022/02/19 06:34:33;;;;;;;;;;;5.30;99.90;;;4.20;85.24;95516.56;10415184;28;1922;-71
2022/02/19 06:39:36;;;;;;;;;;;5.30;99.90;;;4.31;84.84;95523.66;10411831;28;1825;-71
2022/02/19 06:44:40;;;;;;;;;;;5.40;99.90;;;4.41;83.17;95516.91;10417582;28;1786;-71
2022/02/19 06:49:43;;;;;;;;;;;5.50;99.90;;;4.48;82.57;95533.50;10411063;28;1877;-71
2022/02/19 06:54:46;;;;;;;;;;;5.60;99.90;;;4.54;81.02;95549.31;10414531;28;1954;-71
2022/02/19 06:59:50;;;;;;;;;;;5.70;99.90;;;4.66;79.54;95554.59;10409963;28;1846;-70
2022/02/19 07:04:53;;;;;;;;;;;5.80;99.90;;;4.59;79.25;95567.25;10411034;28;1951;-70
2022/02/19 07:09:56;;;;;;;;;;;5.80;99.90;;;4.50;79.30;95582.78;10413921;28;1789;-71
2022/02/19 07:14:58;;;;;;;;;;;5.70;99.90;;;4.46;78.33;95599.50;10415048;28;1914;-70
2022/02/19 07:20:02;;;;;;;;;;;5.60;99.90;;;4.46;77.79;95599.50;10430610;28;2024;-70
2022/02/19 07:25:05;;;;;;;;;;;5.60;99.90;;;4.63;76.56;95605.63;10406932;28;1833;-72
2022/02/19 07:30:09;;;;;;;;;;;5.70;99.90;;;4.71;74.98;95613.25;10410301;28;1834;-72
2022/02/19 07:35:12;;;;;;;;;;;5.80;99.90;;;4.76;73.93;95599.19;10415045;28;1918;-70
2022/02/19 07:40:16;;;;;;;;;;;5.80;99.90;;;4.74;72.89;95626.06;10413478;28;1876;-69
2022/02/19 07:45:19;;;;;;;;;;;5.80;99.90;;;4.88;73.10;95635.34;10412705;28;1821;-70
2022/02/19 08:01:04;;;;;;;;;;;6.00;99.90;;;4.96;70.31;95649.31;10406142;28;1873;-68
2022/02/19 08:06:07;;;;;;;;;;;6.00;99.90;;;5.06;70.26;95660.16;10416421;28;1939;-70
2022/02/19 08:11:11;;;;;;;;;;;6.00;99.90;;;4.98;69.25;95655.25;10414523;28;2044;-71
2022/02/19 08:16:15;;;;;;;;;;;6.10;99.90;;;4.82;69.47;95662.16;10408750;28;1910;-69
2022/02/19 08:21:20;;;;;;;;;;;6.00;99.90;;;4.89;68.67;95684.91;10409466;28;1779;-69
2022/02/19 08:26:24;;;;;;;;;;;5.40;99.90;;;5.07;67.16;95683.09;10409909;28;1818;-69
2022/02/19 08:31:27;;;;;;;;;;;6.00;99.90;;;5.16;64.05;95687.00;10413599;28;1829;-70
2022/02/19 08:36:30;;;;;;;;;;;6.10;99.90;;;5.21;63.30;95702.22;10413396;28;1894;-71
2022/02/19 08:41:34;;;;;;;;;;;6.20;99.90;;;5.31;63.19;95697.88;10417242;28;1852;-71
2022/02/19 08:46:38;;;;;;;;;;;6.30;99.90;;;5.41;62.74;95707.91;10412455;28;1798;-71
2022/02/19 08:51:42;;;;;;;;;;;6.30;99.90;;;5.72;63.25;95701.16;10451312;22;3516;-68
2022/02/19 08:56:47;;;;;;;;;;;6.50;99.90;;;5.66;62.26;95702.16;10479677;28;1949;-67
2022/02/19 09:01:50;;;;;;;;;;;6.60;99.90;;;5.58;60.19;95730.03;10472188;28;1915;-67
2022/02/19 09:06:53;;;;;;;;;;;6.60;99.90;;;5.77;58.42;95727.91;10473620;28;1766;-68
2022/02/19 09:11:56;;;;;;;;;;;6.60;99.90;;;5.80;58.30;95714.13;10475139;28;1823;-67
2022/02/19 09:16:59;;;;;;;;;;;6.70;99.90;;;5.98;56.54;95729.06;10477899;28;1930;-67
2022/02/19 09:22:03;;;;;;;;;;;6.70;99.90;;;6.19;56.62;95738.16;10476613;28;1978;-67
2022/02/19 09:27:06;;;;;;;;;;;7.00;99.90;;;6.22;55.75;95729.66;10466435;28;2129;-67
2022/02/19 09:32:10;;;;;;;;;;;7.10;99.90;;;6.27;55.13;95736.91;10476786;28;1811;-68
2022/02/19 09:37:13;;;;;;;;;;;7.10;99.90;;;6.33;55.03;95751.97;10486730;28;1893;-68
2022/02/19 09:42:16;;;;;;;;;;;7.20;99.90;;;6.53;54.09;95746.06;10508804;28;1871;-68
2022/02/19 09:47:19;;;;;;;;;;;7.40;99.90;;;6.80;53.13;95752.25;10500518;28;2277;-67
2022/02/19 09:52:23;;;;;;;;;;;7.70;99.90;;;7.09;53.38;95770.75;10478700;28;1875;-68
2022/02/19 09:57:27;;;;;;;;;;;7.90;99.90;;;7.05;51.59;95765.91;10483754;28;1953;-69
2022/02/19 10:02:30;;;;;;;;;;;8.10;99.90;;;6.93;52.02;95767.09;10477520;28;1813;-69
2022/02/19 10:07:35;;;;;;;;;;;8.00;99.90;;;6.98;52.70;95764.47;10481223;28;1962;-69
2022/02/19 10:12:38;;;;;;;;;;;8.00;99.90;;;6.87;52.48;95773.44;10479954;28;1896;-66
2022/02/19 10:17:41;;;;;;;;;;;7.90;99.90;;;6.75;50.77;95781.59;10477617;28;1921;-65
2022/02/19 10:22:46;;;;;;;;;;;7.90;99.90;;;6.53;50.01;95784.25;10477080;28;1851;-66
2022/02/19 10:27:51;;;;;;;;;;;7.70;99.90;;;6.30;50.80;95782.63;10478362;28;1840;-68
2022/02/19 10:32:54;;;;;;;;;;;7.50;99.90;;;6.39;49.80;95778.47;10502758;28;1816;-69
2022/02/19 10:37:57;;;;;;;;;;;7.30;99.90;;;6.03;49.19;95789.69;10473975;28;1979;-68
2022/02/19 10:43:02;;;;;;;;;;;7.10;99.90;;;5.95;50.03;95805.06;10475508;28;1809;-69
2022/02/19 10:48:05;;;;;;;;;;;7.00;99.90;;;6.06;49.51;95799.91;10474183;28;1928;-67
2022/02/19 10:53:08;;;;;;;;;;;7.00;99.90;;;6.04;49.58;95799.31;10473290;28;1860;-67
2022/02/19 10:58:11;;;;;;;;;;;7.00;99.90;;;5.89;49.57;95806.00;10477545;28;1910;-68
2022/02/19 11:03:14;;;;;;;;;;;6.90;99.90;;;5.91;50.11;95808.44;10467819;28;1803;-69
2022/02/19 11:08:17;;;;;;;;;;;6.90;99.90;;;5.96;49.83;95803.19;10510358;28;1796;-65
2022/02/19 11:13:19;;;;;;;;;;;7.00;99.90;;;6.00;51.64;95792.88;10509889;28;1948;-67
2022/02/19 11:18:24;;;;;;;;;;;7.00;99.90;;;6.23;49.96;95803.31;10502562;28;1890;-67
2022/02/19 11:23:27;;;;;;;;;;;7.10;99.90;;;6.53;50.00;95791.47;10486134;28;1827;-67
2022/02/19 11:28:30;;;;;;;;;;;6.60;99.90;;;7.00;48.62;95773.88;10474326;28;1938;-67
2022/02/19 11:33:33;;;;;;;;;;;7.70;99.90;;;7.81;47.81;95781.03;10477567;28;1879;-69
2022/02/19 11:38:36;;;;;;;;;;;8.30;99.90;;;8.28;45.54;95774.97;10479862;28;1979;-68
2022/02/19 11:43:43;;;;;;;;;;;;;;;8.27;45.40;95771.47;10479506;28;1832;-69
2022/02/19 11:48:47;;;;;;;;;;;9.00;99.90;;;8.66;44.67;95769.31;10476256;28;2199;-67
2022/02/19 11:53:50;;;;;;;;;;;9.30;99.90;;;8.94;45.01;95760.03;10474975;28;1897;-68
2022/02/19 11:58:54;;;;;;;;;;;;;;;8.47;44.21;95773.50;10479794;28;1979;-68
2022/02/19 12:03:57;;;;;;;;;;;9.40;99.90;;;8.00;45.91;95766.19;10482092;28;2025;-67
2022/02/19 12:09:00;;;;;;;;;;;;;;;8.41;45.20;95758.47;10475528;28;2029;-67
2022/02/19 12:14:03;;;;;;;;;;;9.00;99.90;;;8.30;42.50;95762.13;10471125;28;1922;-67
2022/02/19 12:19:06;;;;;;;;;;;9.20;99.90;;;8.16;42.47;95752.94;10468775;28;1839;-68
2022/02/19 12:24:11;;;;;;;;;;;9.10;99.90;;;8.00;41.27;95752.81;10487512;28;1927;-67
2022/02/19 12:29:14;;;;;;;;;;;8.90;99.90;;;7.89;41.93;95740.44;10472386;28;1822;-67
2022/02/19 12:34:17;;;;;;;;;;;8.70;99.90;;;7.92;41.89;95742.59;10478530;28;1914;-66
2022/02/19 12:39:20;;;;;;;;;;;8.80;99.90;;;7.87;42.18;95739.88;10472917;28;1823;-68
2022/02/19 12:44:24;;;;;;;;;;;8.70;99.90;;;7.63;42.36;95741.28;10474677;28;1833;-66
2022/02/19 12:49:27;;;;;;;;;;;8.70;99.90;;;7.75;42.45;95736.56;10472024;28;1670;-67
2022/02/19 12:54:30;;;;;;;;;;;8.70;99.90;;;7.75;42.17;95737.38;10472781;28;1910;-67
2022/02/19 12:59:33;;;;;;;;;;;8.60;99.90;;;7.90;43.03;95723.31;10469864;28;1906;-66
2022/02/19 13:04:36;;;;;;;;;;;8.70;99.90;;;7.94;42.51;95715.56;10473295;28;1946;-68
2022/02/19 13:09:39;;;;;;;;;;;8.80;99.90;;;7.94;43.56;95716.38;10471788;28;1843;-66
2022/02/19 13:14:42;;;;;;;;;;;8.80;99.90;;;7.78;42.12;95718.16;10474234;28;1918;-68
2022/02/19 13:19:46;;;;;;;;;;;8.80;99.90;;;7.69;42.57;95710.84;10472637;28;1768;-67
2022/02/19 13:24:49;;;;;;;;;;;8.70;99.90;;;7.59;43.38;95728.44;10473756;28;1813;-68
2022/02/19 13:29:52;;;;;;;;;;;8.60;99.90;;;7.58;42.01;95720.69;10472928;28;1876;-66
2022/02/19 13:34:56;;;;;;;;;;;8.50;99.90;;;7.34;42.35;95724.75;10482649;28;1971;-67
2022/02/19 13:40:00;;;;;;;;;;;8.50;99.90;;;7.42;41.45;95727.75;10494787;28;1806;-68
2022/02/19 13:45:03;;;;;;;;;;;8.40;99.90;;;7.53;41.88;95723.31;10472380;28;1824;-67
2022/02/19 13:50:07;;;;;;;;;;;7.50;99.90;;;7.61;42.43;95738.06;10467560;28;1895;-68
2022/02/19 13:55:13;;;;;;;;;;;8.40;99.90;;;7.82;41.54;95727.28;10475721;28;1979;-67
2022/02/19 14:00:16;;;;;;;;;;;8.60;99.90;;;7.72;42.50;95727.19;10475674;28;1839;-67
2022/02/19 14:05:19;;;;;;;;;;;8.70;99.90;;;7.79;43.18;95735.00;10477371;28;1814;-67
2022/02/19 14:10:23;;;;;;;;;;;8.70;99.90;;;7.99;44.57;95732.47;10472720;28;1976;-65
2022/02/19 14:15:27;;;;;;;;;;;8.80;99.90;;;8.00;43.80;95727.91;10473678;28;2022;-67
2022/02/19 14:20:31;;;;;;;;;;;8.90;99.90;;;7.96;43.22;95716.94;10474631;28;1811;-66
2022/02/19 14:25:35;;;;;;;;;;;8.90;99.90;;;7.69;43.67;95732.25;10475777;28;1964;-66
2022/02/19 14:30:38;;;;;;;;;;;8.80;99.90;;;7.54;44.24;95712.34;10469672;28;1677;-65
2022/02/19 14:35:43;;;;;;;;;;;8.70;99.90;;;7.55;44.64;95711.28;10467370;28;1992;-67
2022/02/19 14:40:46;;;;;;;;;;;8.60;99.90;;;7.54;45.63;95714.22;10479144;28;1818;-68
2022/02/19 14:45:49;;;;;;;;;;;8.60;99.90;;;7.55;45.83;95718.50;10480514;28;2097;-67
2022/02/19 14:50:54;;;;;;;;;;;9.60;99.90;;;7.45;46.77;95716.56;10480865;28;1828;-66
2022/02/19 14:55:56;;;;;;;;;;;8.50;99.90;;;7.58;45.49;95701.94;10476799;28;1898;-64
2022/02/19 15:01:00;;;;;;;;;;;8.60;99.90;;;7.63;45.70;95712.66;10502751;28;1917;-68
2022/02/19 15:06:03;;;;;;;;;;;8.50;99.90;;;7.50;46.72;95713.09;10481087;28;1869;-67
2022/02/19 15:11:07;;;;;;;;;;;8.50;99.90;;;7.36;46.75;95702.03;10483272;28;1926;-67
2022/02/19 15:16:12;;;;;;;;;;;8.40;99.90;;;7.18;48.66;95697.06;10480140;28;1983;-66
2022/02/19 15:21:15;;;;;;;;;;;8.20;99.90;;;7.03;49.62;95698.53;10485237;28;1795;-68
2022/02/19 15:26:18;;;;;;;;;;;8.10;99.90;;;6.92;51.13;95691.47;10483641;28;1823;-65
2022/02/19 15:31:21;;;;;;;;;;;8.00;99.90;;;6.87;53.83;95704.78;10476833;28;1896;-66
2022/02/19 15:36:25;;;;;;;;;;;7.90;99.90;;;6.57;57.99;95699.13;10478741;28;1915;-67
2022/02/19 15:41:29;;;;;;;;;;;7.70;99.90;;;6.59;56.00;95694.31;10476552;28;1856;-67
2022/02/19 15:46:33;;;;;;;;;;;7.60;99.90;;;6.62;54.62;95700.00;10480375;28;1859;-66
2022/02/19 15:51:37;;;;;;;;;;;7.60;99.90;;;6.59;53.33;95707.69;10476063;28;1869;-68
2022/02/19 15:56:40;;;;;;;;;;;7.60;99.90;;;6.40;54.72;95701.84;10473538;28;1943;-67
2022/02/19 16:01:45;;;;;;;;;;;7.40;99.90;;;6.30;54.17;95681.19;10475055;28;1781;-68
2022/02/19 16:06:49;;;;;;;;;;;7.40;99.90;;;6.04;56.44;95700.56;10474445;28;1846;-67
2022/02/19 16:11:52;;;;;;;;;;;7.20;99.90;;;5.87;58.80;95700.59;10477943;28;1904;-67
2022/02/19 16:16:56;;;;;;;;;;;7.00;99.90;;;5.71;59.59;95696.88;10478677;28;1901;-67
2022/02/19 16:21:59;;;;;;;;;;;7.00;99.90;;;5.62;61.22;95699.19;10477964;28;1923;-67
2022/02/19 16:27:02;;;;;;;;;;;6.80;99.90;;;5.42;62.81;95701.53;10478944;28;2215;-66
2022/02/19 16:32:05;;;;;;;;;;;6.60;99.90;;;5.32;63.78;95704.84;10473768;28;1732;-67
2022/02/19 16:37:08;;;;;;;;;;;6.50;99.90;;;5.10;65.54;95707.41;10472364;28;1980;-67
2022/02/19 16:42:11;;;;;;;;;;;6.40;99.90;;;5.03;66.09;95711.28;10476580;28;1814;-68
2022/02/19 16:47:14;;;;;;;;;;;6.30;99.90;;;5.03;65.75;95721.94;10478485;28;1880;-70
2022/02/19 16:52:17;;;;;;;;;;;6.30;99.90;;;4.94;66.66;95718.03;10478239;28;2058;-67
2022/02/19 16:57:20;;;;;;;;;;;6.10;99.90;;;4.75;67.13;95720.88;10478327;28;1911;-67
2022/02/19 17:02:24;;;;;;;;;;;6.10;99.90;;;4.65;68.16;95725.22;10472845;28;1792;-67
2022/02/19 17:07:27;;;;;;;;;;;6.10;99.90;;;4.51;68.36;95719.34;10470925;28;1896;-65
2022/02/19 17:12:30;;;;;;;;;;;5.90;99.90;;;4.46;69.12;95716.63;10478056;28;1775;-66
2022/02/19 17:17:33;;;;;;;;;;;5.80;99.90;;;4.48;69.27;95719.84;10476429;28;1906;-68
2022/02/19 17:22:37;;;;;;;;;;;5.70;99.90;;;4.37;69.25;95713.50;10479655;28;1887;-67
2022/02/19 17:27:40;;;;;;;;;;;5.60;99.90;;;4.22;70.45;95710.53;10479310;28;1887;-67
2022/02/19 17:32:43;;;;;;;;;;;5.60;99.90;;;4.23;68.82;95701.50;10476974;28;1813;-67
2022/02/19 17:37:46;;;;;;;;;;;5.50;99.90;;;4.19;68.84;95716.31;10477812;28;1988;-68
2022/02/19 17:42:52;;;;;;;;;;;5.30;99.90;;;4.20;68.05;95713.44;10478392;28;1846;-69
2022/02/19 17:47:55;;;;;;;;;;;4.30;99.90;;;4.21;66.43;95720.38;10475172;28;1818;-66
2022/02/19 17:52:58;;;;;;;;;;;5.30;99.90;;;4.14;65.73;95709.06;10472772;28;1836;-67
2022/02/19 17:58:03;;;;;;;;;;;5.30;99.90;;;3.99;65.65;95730.81;10479508;28;1958;-66
2022/02/19 18:03:06;;;;;;;;;;;5.20;99.90;;;3.98;66.29;95731.03;10483597;28;1723;-67
2022/02/19 18:08:09;;;;;;;;;;;5.20;99.90;;;3.98;66.21;95731.03;10474832;28;2038;-67
2022/02/19 18:13:14;;;;;;;;;;;;;;;4.00;66.28;95743.06;10487562;28;1886;-65
2022/02/19 18:18:18;;;;;;;;;;;;;;;3.86;66.36;95752.31;10482360;28;1989;-66
2022/02/19 18:23:21;;;;;;;;;;;4.80;99.90;;;3.63;67.88;95761.13;10480371;28;1918;-68
2022/02/19 18:28:24;;;;;;;;;;;6.20;99.90;;;3.72;67.98;95754.41;10480225;28;1858;-66
2022/02/19 18:33:27;;;;;;;;;;;4.90;99.90;;;3.56;68.67;95744.44;10480392;28;1780;-67
2022/02/19 18:38:33;;;;;;;;;;;5.00;99.90;;;3.46;69.94;95754.84;10483284;28;1971;-67
2022/02/19 18:43:37;;;;;;;;;;;4.80;99.90;;;3.38;70.09;95753.34;10481365;28;1674;-67
2022/02/19 18:48:41;;;;;;;;;;;4.70;99.90;;;3.38;70.49;95747.22;10473694;28;2037;-66
2022/02/19 18:53:44;;;;;;;;;;;4.70;99.90;;;3.29;71.62;95740.59;10481912;28;1479;-67
2022/02/19 18:58:47;;;;;;;;;;;4.60;99.90;;;3.23;71.36;95737.00;10470478;28;1967;-67
2022/02/19 19:03:50;;;;;;;;;;;4.60;99.90;;;3.18;71.76;95743.03;10474463;28;1796;-65
2022/02/19 19:08:54;;;;;;;;;;;4.50;99.90;;;3.10;72.87;95745.19;10478664;28;1845;-67
2022/02/19 19:13:57;;;;;;;;;;;4.50;99.90;;;3.16;72.05;95741.63;10468701;28;1684;-67
2022/02/19 19:19:01;;;;;;;;;;;4.40;99.90;;;3.07;72.89;95733.16;10487402;28;1906;-66
2022/02/19 19:24:05;;;;;;;;;;;4.30;99.90;;;3.05;73.30;95726.44;10486601;28;1888;-67
2022/02/19 19:29:08;;;;;;;;;;;4.30;99.90;;;2.99;74.02;95744.13;10479677;28;1535;-66
2022/02/19 19:34:14;;;;;;;;;;;4.30;99.90;;;2.91;73.93;95739.91;10485970;28;1468;-66
2022/02/19 19:39:17;;;;;;;;;;;;;;;2.91;73.96;95729.31;10502060;28;1914;-67
2022/02/19 19:44:21;;;;;;;;;;;4.10;99.90;;;2.86;73.91;95725.69;10490521;28;1492;-66
2022/02/19 19:49:25;;;;;;;;;;;4.10;99.90;;;2.92;72.88;95733.56;10488036;28;1569;-66
2022/02/19 19:54:28;;;;;;;;;;;4.20;99.90;;;3.02;72.58;95742.84;10488968;28;1666;-68
2022/02/19 19:59:32;;;;;;;;;;;4.10;99.90;;;2.94;73.37;95736.84;10516987;28;1909;-69
2022/02/19 20:04:36;;;;;;;;;;;4.20;99.90;;;2.97;73.60;95735.56;10513544;28;1451;-66
2022/02/19 20:09:39;;;;;;;;;;;4.20;99.90;;;2.86;73.44;95736.31;10489149;28;1466;-68
2022/02/19 20:14:43;;;;;;;;;;;4.10;99.90;;;2.92;72.53;95728.25;10482887;28;1526;-68
2022/02/19 20:19:46;;;;;;;;;;;4.20;99.90;;;3.00;72.38;95732.47;10473324;28;1923;-68
2022/02/19 20:24:50;;;;;;;;;;;4.20;99.90;;;3.04;72.54;95730.97;10476541;28;1491;-67
2022/02/19 20:29:54;;;;;;;;;;;4.20;99.90;;;3.08;72.29;95726.81;10476537;28;1404;-68
2022/02/19 20:34:58;;;;;;;;;;;4.20;99.90;;;3.06;72.68;95726.25;10497700;28;1569;-69
2022/02/19 20:40:03;;;;;;;;;;;4.20;99.90;;;2.99;73.17;95722.88;10481122;28;1898;-67
2022/02/19 20:45:06;;;;;;;;;;;4.10;99.90;;;2.99;73.65;95714.91;10480992;28;1523;-67
2022/02/19 20:50:09;;;;;;;;;;;4.20;99.90;;;2.98;73.51;95726.56;10475677;28;1506;-67
2022/02/19 20:55:12;;;;;;;;;;;4.20;99.90;;;3.00;74.29;95732.47;10482328;28;1427;-67
2022/02/19 21:00:16;;;;;;;;;;;4.20;99.90;;;2.99;74.10;95728.19;10474427;28;2028;-68
2022/02/19 21:05:19;;;;;;;;;;;4.20;99.90;;;2.99;75.57;95722.88;10470543;28;1872;-67
2022/02/19 21:10:22;;;;;;;;;;;4.20;99.90;;;3.00;75.47;95724.50;10476458;28;1424;-68
2022/02/19 21:15:25;;;;;;;;;;;4.20;99.90;;;3.00;75.70;95719.19;10480198;28;1462;-69
2022/02/19 21:20:29;;;;;;;;;;;4.20;99.90;;;2.89;75.66;95707.50;10477716;28;1964;-69
2022/02/19 21:25:32;;;;;;;;;;;4.10;99.90;;;2.88;76.23;95716.50;10474937;28;1471;-68
2022/02/19 21:30:39;;;;;;;;;;;4.10;99.90;;;2.86;76.58;95712.44;10466734;28;1459;-66
2022/02/19 21:35:42;;;;;;;;;;;4.10;99.90;;;2.78;77.51;95710.09;10479500;28;1539;-69
2022/02/19 21:40:45;;;;;;;;;;;4.10;99.90;;;2.81;77.75;95709.66;10480972;28;1898;-69
2022/02/19 21:45:48;;;;;;;;;;;4.00;99.90;;;2.81;77.73;95712.31;10479764;28;1472;-69
2022/02/19 21:50:51;;;;;;;;;;;4.00;99.90;;;2.80;78.44;95708.03;10477441;28;1434;-69
2022/02/19 21:55:54;;;;;;;;;;;4.00;99.90;;;2.83;77.73;95715.56;10483510;28;1722;-66
2022/02/19 22:00:57;;;;;;;;;;;4.00;99.90;;;2.78;78.55;95710.09;10478425;28;1996;-68
2022/02/19 22:06:00;;;;;;;;;;;4.00;99.90;;;2.75;78.74;95705.25;10483029;28;1501;-68
2022/02/19 22:11:05;;;;;;;;;;;4.00;99.90;;;2.70;78.02;95698.78;10487366;28;1492;-69
2022/02/19 22:16:08;;;;;;;;;;;3.90;99.90;;;2.70;78.40;95690.81;10482538;28;1467;-68
2022/02/19 22:21:12;;;;;;;;;;;3.90;99.90;;;2.75;77.56;95692.78;10483893;28;1971;-69
2022/02/19 22:26:15;;;;;;;;;;;3.90;99.90;;;2.69;77.34;95686.53;10484404;28;1473;-66
2022/02/19 22:31:18;;;;;;;;;;;3.90;99.90;;;2.55;78.15;95679.81;10481146;28;1814;-68
2022/02/19 22:36:21;;;;;;;;;;;3.90;99.90;;;2.68;77.55;95676.16;10480742;28;1462;-67
2022/02/19 22:41:24;;;;;;;;;;;3.80;99.90;;;2.48;77.78;95665.00;10483000;28;2015;-69
2022/02/19 22:46:27;;;;;;;;;;;3.80;99.90;;;2.51;77.12;95668.00;10478494;28;1852;-66
2022/02/19 22:51:30;;;;;;;;;;;3.70;99.90;;;2.44;77.57;95667.31;10478252;28;1862;-68
2022/02/19 22:56:33;;;;;;;;;;;3.70;99.90;;;2.40;77.45;95655.50;10477457;28;1868;-68
2022/02/19 23:01:36;;;;;;;;;;;3.60;99.90;;;2.37;76.44;95653.31;10476715;28;1984;-68
2022/02/19 23:06:39;;;;;;;;;;;3.70;99.90;;;2.33;77.04;95654.78;10480007;28;1889;-68
2022/02/19 23:11:42;;;;;;;;;;;3.60;99.90;;;2.41;77.00;95647.31;10483596;28;1811;-68
2022/02/19 23:16:45;;;;;;;;;;;3.50;99.90;;;2.46;75.65;95638.69;10480122;28;2041;-68
2022/02/19 23:21:49;;;;;;;;;;;3.60;99.90;;;2.48;75.64;95631.31;10475677;28;1990;-67
2022/02/19 23:26:52;;;;;;;;;;;3.60;99.90;;;2.64;74.27;95635.97;10480530;28;1829;-68
2022/02/19 23:31:55;;;;;;;;;;;3.70;99.90;;;2.68;73.58;95628.38;10474326;28;1964;-67
2022/02/19 23:36:58;;;;;;;;;;;3.70;99.90;;;2.74;73.38;95613.41;10476321;28;1774;-65
2022/02/19 23:42:01;;;;;;;;;;;3.80;99.90;;;2.80;73.54;95607.16;10471627;28;1981;-68
2022/02/19 23:47:05;;;;;;;;;;;3.80;99.90;;;2.84;73.19;95608.31;10476133;28;1863;-68
2022/02/19 23:52:08;;;;;;;;;;;3.80;99.90;;;2.80;73.16;95599.19;10480287;28;1882;-67
2022/02/19 23:57:12;;;;;;;;;;;3.80;99.90;;;2.79;73.23;95593.06;10472636;28;1918;-67
